Time;durP1;ratioP1;P1;durP2;ratioP2;P2;SDS_P1;SDS_P2;PMS_P1;PMS_P2;Temp;Humidity;BMP_temperature;BMP_pressure;BME280_temperature;BME280_humidity;BME280_pressure;Samples;Min_cycle;Max_cycle;Signal;HPM_P1;HPM_P2
2021/10/11 00:01:43;;;;;;;3.60;3.30;;;22.20;48.80;;;;;;5095790;28;20203;-81
2021/10/11 00:04:08;;;;;;;3.93;3.63;;;22.20;49.40;;;;;;5109694;28;20450;-81
2021/10/11 00:06:40;;;;;;;3.83;3.40;;;22.20;48.80;;;;;;5100995;28;20230;-81
2021/10/11 00:09:08;;;;;;;3.53;3.23;;;22.20;48.80;;;;;;5097103;28;20189;-81
2021/10/11 00:11:37;;;;;;;3.40;3.07;;;22.20;48.80;;;;;;5091392;28;20427;-81
2021/10/11 00:14:03;;;;;;;3.80;3.40;;;22.30;48.90;;;;;;5099622;28;20932;-81
2021/10/11 00:16:29;;;;;;;2.93;2.60;;;22.20;48.80;;;;;;5124853;28;20422;-82
2021/10/11 00:18:58;;;;;;;3.43;3.13;;;22.20;48.80;;;;;;5103661;28;20427;-82
2021/10/11 00:21:27;;;;;;;4.07;3.67;;;22.20;48.80;;;;;;5095331;28;20714;-82
2021/10/11 00:23:55;;;;;;;3.80;3.50;;;22.20;48.90;;;;;;5092281;28;20469;-82
2021/10/11 00:26:21;;;;;;;3.30;3.00;;;22.20;48.80;;;;;;5109338;28;20423;-81
2021/10/11 00:28:53;;;;;;;3.67;3.20;;;22.20;48.80;;;;;;5093240;28;20848;-81
2021/10/11 00:31:24;;;;;;;3.30;3.00;;;22.20;49.00;;;;;;5110895;28;20177;-82
2021/10/11 00:33:50;;;;;;;3.60;3.20;;;22.20;48.90;;;;;;5109847;28;20427;-82
2021/10/11 00:36:16;;;;;;;3.20;2.90;;;22.20;48.90;;;;;;5110345;28;20426;-82
2021/10/11 00:38:42;;;;;;;3.67;3.00;;;22.20;48.90;;;;;;5127838;28;20180;-82
2021/10/11 00:41:10;;;;;;;3.90;3.10;;;22.20;48.90;;;;;;5110251;28;20179;-82
2021/10/11 00:43:42;;;;;;;4.17;3.70;;;22.30;49.00;;;;;;5104722;28;20180;-82
2021/10/11 00:46:30;;;;;;;;;;;;;;;;;;;;;
2021/10/11 00:48:59;;;;;;;3.40;3.10;;;22.20;48.90;;;;;;5126383;28;20510;-82
2021/10/11 00:51:24;;;;;;;3.50;3.20;;;22.20;48.90;;;;;;5103959;28;20427;-82
2021/10/11 00:53:50;;;;;;;3.10;2.57;;;22.20;48.90;;;;;;5126905;28;20943;-82
2021/10/11 00:56:16;;;;;;;4.10;3.73;;;22.20;48.90;;;;;;5106391;28;20635;-82
2021/10/11 00:58:45;;;;;;;4.43;3.80;;;22.20;48.90;;;;;;5105798;28;20197;-82
2021/10/11 01:01:13;;;;;;;3.53;3.23;;;22.20;48.90;;;;;;5101778;28;20185;-82
2021/10/11 01:04:07;;;;;;;2.97;2.67;;;22.20;48.90;;;;;;5127320;28;20425;-82
2021/10/11 01:06:39;;;;;;;3.83;3.53;;;22.20;48.90;;;;;;5096630;28;20412;-82
2021/10/11 01:09:06;;;;;;;3.17;2.87;;;22.20;49.00;;;;;;5089238;28;20463;-82
2021/10/11 01:11:32;;;;;;;2.63;2.43;;;22.20;49.00;;;;;;5103006;28;20434;-82
2021/10/11 01:13:58;;;;;;;3.40;3.10;;;22.20;49.00;;;;;;5108914;28;20423;-82
2021/10/11 01:16:24;;;;;;;3.63;3.10;;;22.20;49.00;;;;;;5128048;28;20184;-82
2021/10/11 01:18:50;;;;;;;3.60;3.30;;;22.20;49.00;;;;;;5096321;28;20178;-82
2021/10/11 01:21:16;;;;;;;3.30;3.00;;;22.20;49.00;;;;;;5090973;28;20419;-82
2021/10/11 01:23:42;;;;;;;3.80;3.50;;;22.20;49.00;;;;;;5091595;28;20411;-82
2021/10/11 01:26:07;;;;;;;3.23;2.93;;;22.20;49.00;;;;;;5109191;28;20572;-82
2021/10/11 01:28:33;;;;;;;3.43;3.13;;;22.20;49.00;;;;;;5127247;28;20216;-82
2021/10/11 01:30:59;;;;;;;3.20;2.90;;;22.20;49.00;;;;;;5127438;28;20525;-82
2021/10/11 01:33:25;;;;;;;3.60;3.30;;;22.20;49.00;;;;;;5100425;28;20169;-82
2021/10/11 01:35:50;;;;;;;3.70;3.27;;;22.20;49.00;;;;;;5108163;28;20172;-82
2021/10/11 01:38:22;;;;;;;3.20;2.90;;;22.20;49.00;;;;;;5107141;28;20181;-82
2021/10/11 01:40:48;;;;;;;3.73;3.43;;;22.20;49.00;;;;;;5107285;28;20185;-82
2021/10/11 01:43:14;;;;;;;3.63;3.33;;;22.20;49.00;;;;;;5100236;28;20795;-82
2021/10/11 01:45:43;;;;;;;4.07;3.67;;;22.20;49.00;;;;;;5126880;28;20177;-82
2021/10/11 01:48:09;;;;;;;3.57;3.27;;;22.20;49.00;;;;;;5107508;28;20186;-82
2021/10/11 01:50:34;;;;;;;3.10;2.80;;;22.20;49.00;;;;;;5119810;28;20458;-82
2021/10/11 01:53:01;;;;;;;3.73;3.27;;;22.10;48.90;;;;;;5116067;28;20177;-82
2021/10/11 01:55:26;;;;;;;3.83;3.43;;;22.20;49.00;;;;;;5127093;28;20204;-82
2021/10/11 01:57:52;;;;;;;3.67;3.20;;;22.20;49.00;;;;;;5118485;28;20427;-82
2021/10/11 02:00:18;;;;;;;3.53;3.23;;;22.20;49.00;;;;;;5100453;28;20181;-82
2021/10/11 02:02:44;;;;;;;4.23;3.83;;;22.20;49.00;;;;;;5103406;28;20181;-82
2021/10/11 02:05:10;;;;;;;3.90;3.50;;;22.10;48.90;;;;;;5096087;28;20423;-82
2021/10/11 02:07:36;;;;;;;3.30;3.00;;;22.10;49.00;;;;;;5089264;28;20182;-82
2021/10/11 02:10:04;;;;;;;3.60;3.30;;;22.20;49.10;;;;;;5089009;28;20490;-82
2021/10/11 02:12:30;;;;;;;3.20;2.90;;;22.20;49.00;;;;;;5123861;28;20203;-82
2021/10/11 02:14:55;;;;;;;3.77;3.40;;;22.10;49.00;;;;;;5089367;28;20473;-82
2021/10/11 02:17:22;;;;;;;4.73;3.40;;;22.20;49.00;;;;;;5107584;28;20490;-82
2021/10/11 02:19:47;;;;;;;3.50;3.20;;;22.20;49.00;;;;;;5093880;28;20203;-82
2021/10/11 02:22:13;;;;;;;3.27;2.90;;;22.20;49.00;;;;;;5091764;28;20820;-82
2021/10/11 02:24:39;;;;;;;3.30;3.00;;;22.10;49.00;;;;;;5127492;28;20181;-82
2021/10/11 02:27:04;;;;;;;3.23;2.77;;;22.20;49.00;;;;;;5108716;28;20173;-82
2021/10/11 02:29:31;;;;;;;4.27;3.63;;;22.10;49.00;;;;;;5107239;28;20205;-82
2021/10/11 02:31:57;;;;;;;3.50;2.93;;;22.10;49.00;;;;;;5091298;28;20197;-82
2021/10/11 02:34:23;;;;;;;4.10;3.40;;;22.10;49.00;;;;;;5106019;28;20423;-82
2021/10/11 02:36:50;;;;;;;3.30;3.00;;;22.20;49.10;;;;;;5107222;28;20177;-82
2021/10/11 02:39:17;;;;;;;3.80;3.37;;;22.10;49.00;;;;;;5094739;28;20896;-82
2021/10/11 02:41:42;;;;;;;4.20;3.80;;;22.20;49.10;;;;;;5098412;28;20435;-82
2021/10/11 02:44:08;;;;;;;3.50;3.20;;;22.20;49.00;;;;;;5106971;28;20426;-82
2021/10/11 02:46:34;;;;;;;3.20;2.83;;;22.10;49.00;;;;;;5092279;28;20710;-82
2021/10/11 02:49:01;;;;;;;3.50;3.20;;;22.20;49.10;;;;;;5115422;28;20262;-82
2021/10/11 02:51:26;;;;;;;4.30;3.00;;;22.10;49.00;;;;;;5089305;28;20699;-82
2021/10/11 02:53:55;;;;;;;4.30;3.43;;;22.20;49.10;;;;;;5088778;28;20419;-82
2021/10/11 03:03:36;;;;;;;3.67;3.37;;;22.10;49.00;;;;;;5024383;28;20592;-82
2021/10/11 03:06:02;;;;;;;4.17;3.60;;;22.10;49.00;;;;;;5007934;28;20423;-82
2021/10/11 03:08:28;;;;;;;3.47;3.17;;;22.10;49.10;;;;;;5067537;28;20426;-82
2021/10/11 03:10:53;;;;;;;3.47;3.03;;;22.10;49.10;;;;;;5087918;28;20233;-82
2021/10/11 03:13:19;;;;;;;4.00;3.30;;;22.10;49.10;;;;;;5108169;28;20655;-82
2021/10/11 03:15:45;;;;;;;3.50;3.20;;;22.10;49.00;;;;;;5109401;28;20204;-82
2021/10/11 03:18:10;;;;;;;4.53;3.40;;;22.10;49.00;;;;;;5130309;28;20195;-82
2021/10/11 03:20:36;;;;;;;3.53;3.00;;;22.10;49.00;;;;;;5130764;28;20207;-82
2021/10/11 03:23:02;;;;;;;3.33;3.03;;;22.10;49.00;;;;;;5130567;28;20188;-82
2021/10/11 03:25:28;;;;;;;3.17;2.67;;;22.10;49.00;;;;;;5112189;27;20198;-82
2021/10/11 03:27:53;;;;;;;4.13;3.60;;;22.10;49.00;;;;;;5111983;28;20442;-82
2021/10/11 03:30:19;;;;;;;3.03;2.73;;;22.10;49.00;;;;;;5146079;27;20208;-82
2021/10/11 03:32:45;;;;;;;3.60;3.30;;;22.10;49.00;;;;;;5118020;28;20198;-82
2021/10/11 03:35:11;;;;;;;3.30;3.00;;;22.10;49.60;;;;;;5091917;28;20203;-82
2021/10/11 03:37:37;;;;;;;3.60;3.03;;;22.10;49.00;;;;;;5118290;27;20263;-82
2021/10/11 03:40:03;;;;;;;4.07;3.70;;;22.10;49.00;;;;;;5133119;27;20192;-82
2021/10/11 03:42:29;;;;;;;3.60;3.30;;;22.10;49.00;;;;;;5107022;28;20216;-82
2021/10/11 03:44:55;;;;;;;4.27;3.70;;;22.10;49.00;;;;;;5125144;27;20428;-82
2021/10/11 03:47:23;;;;;;;3.63;3.33;;;22.10;49.00;;;;;;5105338;27;20270;-82
2021/10/11 03:49:49;;;;;;;3.47;3.17;;;22.10;49.00;;;;;;5126649;27;20233;-82
2021/10/11 03:52:15;;;;;;;3.70;3.07;;;22.10;49.00;;;;;;5103039;28;20427;-82
2021/10/11 03:54:40;;;;;;;3.03;2.73;;;22.10;49.00;;;;;;5121845;27;20202;-82
2021/10/11 03:57:06;;;;;;;3.50;3.20;;;22.10;49.10;;;;;;5119717;28;20211;-82
2021/10/11 03:59:32;;;;;;;4.10;3.30;;;22.10;49.00;;;;;;5099938;28;20670;-82
2021/10/11 04:01:58;;;;;;;3.50;3.20;;;22.10;49.00;;;;;;5100280;28;20646;-82
2021/10/11 04:04:23;;;;;;;3.50;3.20;;;22.10;49.10;;;;;;5090919;28;20252;-82
2021/10/11 04:06:50;;;;;;;3.60;3.30;;;22.10;49.10;;;;;;5109071;28;20264;-82
2021/10/11 04:09:16;;;;;;;3.23;2.93;;;22.10;49.10;;;;;;5112076;28;20202;-82
2021/10/11 04:11:42;;;;;;;3.27;3.07;;;22.10;49.10;;;;;;5097308;28;20438;-82
2021/10/11 04:14:08;;;;;;;3.70;3.40;;;22.10;49.10;;;;;;5108699;28;20226;-82
2021/10/11 04:16:33;;;;;;;3.27;2.97;;;22.10;49.10;;;;;;5095308;28;20176;-82
2021/10/11 04:18:59;;;;;;;3.87;3.40;;;22.00;49.00;;;;;;5108547;28;20196;-82
2021/10/11 04:21:25;;;;;;;3.67;3.37;;;22.10;49.10;;;;;;5114410;28;20738;-82
2021/10/11 04:23:51;;;;;;;3.47;3.17;;;22.00;49.00;;;;;;5093621;28;20428;-82
2021/10/11 04:26:16;;;;;;;3.83;3.20;;;22.00;49.00;;;;;;5090571;28;20193;-82
2021/10/11 04:28:42;;;;;;;3.50;3.20;;;22.10;49.00;;;;;;5089074;28;20212;-82
2021/10/11 04:31:08;;;;;;;3.60;3.30;;;22.10;49.00;;;;;;5109202;28;20231;-82
2021/10/11 04:33:34;;;;;;;3.17;2.87;;;22.10;49.00;;;;;;5093672;28;20249;-82
2021/10/11 04:35:59;;;;;;;3.37;3.07;;;22.10;49.00;;;;;;5092337;28;20216;-82
2021/10/11 04:38:25;;;;;;;4.33;3.93;;;22.10;49.00;;;;;;5108355;28;20177;-82
2021/10/11 04:40:51;;;;;;;4.10;3.73;;;22.10;49.00;;;;;;5092125;28;20181;-82
2021/10/11 04:43:17;;;;;;;3.40;2.97;;;22.10;49.00;;;;;;5109058;28;20182;-82
2021/10/11 04:45:42;;;;;;;3.33;2.97;;;22.10;49.00;;;;;;5090227;28;20656;-82
2021/10/11 04:48:10;;;;;;;3.70;2.90;;;22.10;49.10;;;;;;5090127;28;20188;-82
2021/10/11 04:50:37;;;;;;;2.87;2.60;;;22.10;49.10;;;;;;5098775;28;20212;-82
2021/10/11 04:53:04;;;;;;;3.30;3.00;;;22.10;49.10;;;;;;5094751;28;20456;-82
2021/10/11 04:55:31;;;;;;;2.90;2.70;;;22.10;49.10;;;;;;5097690;28;20767;-82
2021/10/11 04:57:58;;;;;;;3.17;2.87;;;22.10;49.10;;;;;;5099906;28;20428;-82
2021/10/11 05:00:24;;;;;;;4.40;3.57;;;22.20;49.20;;;;;;5114264;28;20419;-82
2021/10/11 05:02:49;;;;;;;3.20;2.90;;;22.10;49.10;;;;;;5093766;28;20431;-82
2021/10/11 05:05:15;;;;;;;3.20;2.90;;;22.10;49.20;;;;;;5108716;28;20783;-82
2021/10/11 05:07:41;;;;;;;4.13;3.73;;;22.20;49.20;;;;;;5108704;28;20184;-82
2021/10/11 05:10:07;;;;;;;3.13;2.87;;;22.10;49.10;;;;;;5091874;28;20240;-83
2021/10/11 05:12:33;;;;;;;4.20;3.57;;;22.20;49.20;;;;;;5096997;28;20174;-83
2021/10/11 05:14:59;;;;;;;3.70;3.40;;;22.10;49.10;;;;;;5097647;28;20455;-83
2021/10/11 05:17:28;;;;;;;3.20;2.90;;;22.20;49.20;;;;;;5114661;28;20793;-83
2021/10/11 05:19:53;;;;;;;3.37;3.07;;;22.20;49.20;;;;;;5107661;28;20197;-83
2021/10/11 05:22:19;;;;;;;3.57;3.27;;;22.20;49.20;;;;;;5091246;28;20457;-83
2021/10/11 05:24:46;;;;;;;4.50;3.60;;;22.20;49.20;;;;;;5108859;28;20173;-83
2021/10/11 05:27:13;;;;;;;4.57;4.07;;;22.20;49.10;;;;;;5107982;28;20168;-83
2021/10/11 05:29:39;;;;;;;3.83;3.43;;;22.20;49.20;;;;;;5090396;28;20565;-83
2021/10/11 05:32:07;;;;;;;3.63;3.33;;;22.20;49.10;;;;;;5089662;28;20412;-83
2021/10/11 05:34:33;;;;;;;3.83;3.53;;;22.20;49.20;;;;;;5090258;28;20180;-83
2021/10/11 05:36:59;;;;;;;3.70;3.40;;;22.20;49.70;;;;;;5090172;28;20416;-83
2021/10/11 05:39:25;;;;;;;3.47;3.17;;;22.20;49.20;;;;;;5089871;28;20276;-83
2021/10/11 05:41:51;;;;;;;4.30;3.90;;;22.20;49.20;;;;;;5090209;28;20419;-83
2021/10/11 05:44:17;;;;;;;4.47;4.00;;;22.20;49.20;;;;;;5073920;28;20178;-83
2021/10/11 05:46:43;;;;;;;4.87;3.67;;;22.20;49.10;;;;;;5107876;28;20177;-83
2021/10/11 05:49:09;;;;;;;4.50;4.10;;;22.20;49.10;;;;;;5090073;28;20462;-83
2021/10/11 05:51:34;;;;;;;4.33;3.87;;;22.20;49.20;;;;;;5090417;28;20169;-83
2021/10/11 05:54:00;;;;;;;6.40;5.37;;;22.20;49.10;;;;;;5107990;28;20181;-83
2021/10/11 05:56:26;;;;;;;4.43;3.90;;;22.20;49.10;;;;;;5090046;28;20184;-83
2021/10/11 05:58:51;;;;;;;4.40;3.80;;;22.20;49.10;;;;;;5108677;28;20257;-83
2021/10/11 06:01:20;;;;;;;4.20;3.70;;;22.20;49.10;;;;;;5089821;28;20178;-83
2021/10/11 06:03:46;;;;;;;4.57;3.83;;;22.20;49.10;;;;;;5107990;28;20173;-83
2021/10/11 06:06:12;;;;;;;4.37;3.97;;;22.20;49.10;;;;;;5108453;28;20505;-83
2021/10/11 06:08:37;;;;;;;3.57;3.27;;;22.20;49.10;;;;;;5090630;28;20211;-83
2021/10/11 06:11:03;;;;;;;3.80;3.47;;;22.20;49.10;;;;;;5089793;28;20236;-82
2021/10/11 06:13:29;;;;;;;3.27;2.97;;;22.20;49.10;;;;;;5089399;28;20169;-83
2021/10/11 06:15:55;;;;;;;3.90;3.60;;;22.20;49.10;;;;;;5089419;28;20198;-83
2021/10/11 06:18:20;;;;;;;4.00;3.60;;;22.20;49.20;;;;;;5089393;28;20673;-83
2021/10/11 06:20:46;;;;;;;4.40;4.03;;;22.20;49.20;;;;;;5107036;28;20241;-83
2021/10/11 06:23:13;;;;;;;4.60;4.20;;;22.20;49.20;;;;;;5089354;28;20215;-83
2021/10/11 06:25:40;;;;;;;3.43;3.13;;;22.20;49.20;;;;;;5089312;28;20658;-83
2021/10/11 06:28:06;;;;;;;3.77;3.47;;;22.20;49.20;;;;;;5106755;28;20415;-83
2021/10/11 06:30:31;;;;;;;3.47;3.17;;;22.20;49.20;;;;;;5088839;28;20492;-83
2021/10/11 06:32:57;;;;;;;4.40;4.00;;;22.20;49.20;;;;;;5089010;28;20184;-83
2021/10/11 06:35:23;;;;;;;4.30;3.83;;;22.20;49.20;;;;;;5088777;28;20174;-83
2021/10/11 06:37:49;;;;;;;4.10;3.70;;;22.20;49.20;;;;;;5088938;28;20575;-83
2021/10/11 06:40:15;;;;;;;5.00;3.60;;;22.20;49.20;;;;;;5089451;28;20208;-83
2021/10/11 06:42:42;;;;;;;3.93;3.50;;;22.20;49.20;;;;;;5106841;28;20411;-83
2021/10/11 06:45:08;;;;;;;3.67;3.37;;;22.20;49.20;;;;;;5107456;28;20438;-83
2021/10/11 06:47:34;;;;;;;3.83;3.43;;;22.20;49.20;;;;;;5089282;28;20434;-83
2021/10/11 06:50:00;;;;;;;3.57;3.23;;;22.20;49.20;;;;;;5107049;28;20455;-83
2021/10/11 06:52:26;;;;;;;4.10;3.70;;;22.20;49.20;;;;;;5121204;27;20176;-83
2021/10/11 06:54:52;;;;;;;5.43;3.87;;;22.20;49.20;;;;;;5143444;27;20436;-83
2021/10/11 06:57:17;;;;;;;3.30;3.10;;;22.30;49.30;;;;;;5096381;28;20214;-83
2021/10/11 06:59:43;;;;;;;4.87;3.90;;;22.30;49.30;;;;;;5132346;28;20176;-83
2021/10/11 07:02:09;;;;;;;4.10;3.70;;;22.30;49.30;;;;;;5120589;28;20206;-83
2021/10/11 07:04:35;;;;;;;4.23;3.80;;;22.30;49.30;;;;;;5093094;28;20193;-83
2021/10/11 07:07:01;;;;;;;3.73;3.33;;;22.30;49.20;;;;;;5098189;28;20196;-83
2021/10/11 07:09:27;;;;;;;3.87;3.50;;;22.30;49.20;;;;;;5114842;28;20532;-83
2021/10/11 07:11:52;;;;;;;3.83;3.50;;;22.30;49.20;;;;;;5096913;27;20447;-83
2021/10/11 07:14:18;;;;;;;4.30;3.93;;;22.30;49.20;;;;;;5133023;27;20176;-83
2021/10/11 07:16:45;;;;;;;4.00;3.50;;;22.30;49.20;;;;;;5125205;27;20661;-83
2021/10/11 07:19:13;;;;;;;4.47;4.03;;;22.30;49.20;;;;;;5115493;28;20182;-83
2021/10/11 07:21:39;;;;;;;4.07;3.77;;;22.30;49.20;;;;;;5111022;28;20422;-83
2021/10/11 07:24:05;;;;;;;4.90;3.70;;;22.20;49.20;;;;;;5075411;28;20433;-83
2021/10/11 07:26:31;;;;;;;4.30;3.90;;;22.20;49.20;;;;;;5110416;28;20412;-83
2021/10/11 07:28:57;;;;;;;4.33;3.93;;;22.30;49.20;;;;;;5130893;27;20220;-83
2021/10/11 07:31:23;;;;;;;4.63;4.23;;;22.20;49.10;;;;;;5098744;28;20419;-83
2021/10/11 07:33:48;;;;;;;4.50;3.80;;;22.30;49.20;;;;;;5103627;28;20185;-83
2021/10/11 07:36:18;;;;;;;4.20;3.60;;;22.30;49.20;;;;;;5124507;28;20177;-83
2021/10/11 07:38:44;;;;;;;3.70;3.40;;;22.30;49.20;;;;;;5117206;28;20184;-83
2021/10/11 07:41:09;;;;;;;4.47;4.07;;;22.30;49.20;;;;;;5092725;28;20871;-83
2021/10/11 07:43:35;;;;;;;3.50;3.20;;;22.30;49.30;;;;;;5093287;28;20209;-83
2021/10/11 07:46:05;;;;;;;4.63;4.17;;;22.30;49.30;;;;;;5121859;28;20181;-83
2021/10/11 07:48:31;;;;;;;4.50;3.53;;;22.30;49.30;;;;;;5113293;28;20244;-83
2021/10/11 07:50:57;;;;;;;4.23;3.83;;;22.30;49.30;;;;;;5116161;27;20482;-83
2021/10/11 07:53:26;;;;;;;4.70;4.30;;;22.30;49.30;;;;;;5128687;27;20420;-83
2021/10/11 07:55:52;;;;;;;3.17;2.87;;;22.30;49.30;;;;;;5130041;28;20456;-83
2021/10/11 07:58:17;;;;;;;4.00;3.70;;;22.30;49.40;;;;;;5113264;28;20415;-83
2021/10/11 08:00:43;;;;;;;3.37;3.07;;;22.30;49.30;;;;;;5113464;27;20181;-83
2021/10/11 08:03:09;;;;;;;3.97;3.67;;;22.30;49.30;;;;;;5142990;27;20187;-83
2021/10/11 08:05:36;;;;;;;3.57;3.10;;;22.30;49.40;;;;;;5118237;28;20197;-83
2021/10/11 08:08:03;;;;;;;4.07;3.33;;;22.30;49.40;;;;;;5150782;27;20182;-83
2021/10/11 08:10:29;;;;;;;4.07;3.67;;;22.30;49.40;;;;;;5119984;27;20865;-83
2021/10/11 08:12:55;;;;;;;3.90;3.60;;;22.30;49.40;;;;;;5104012;28;20458;-83
2021/10/11 08:15:22;;;;;;;3.70;3.40;;;22.30;49.40;;;;;;5092081;28;20419;-83
2021/10/11 08:17:50;;;;;;;4.20;3.37;;;22.30;49.30;;;;;;5108850;28;20185;-83
2021/10/11 08:20:16;;;;;;;4.23;3.83;;;22.30;49.30;;;;;;5125178;27;20409;-83
2021/10/11 08:22:42;;;;;;;3.67;3.30;;;22.30;49.30;;;;;;5129151;27;20429;-83
2021/10/11 08:25:08;;;;;;;4.30;3.90;;;22.30;49.30;;;;;;5102251;28;20434;-83
2021/10/11 08:27:34;;;;;;;4.37;3.97;;;22.30;49.30;;;;;;5091304;28;20181;-83
2021/10/11 08:30:00;;;;;;;4.10;3.40;;;22.30;49.30;;;;;;5115724;28;20470;-83
2021/10/11 08:32:29;;;;;;;3.83;3.50;;;22.30;49.30;;;;;;5129601;28;20828;-83
2021/10/11 08:34:56;;;;;;;3.90;3.60;;;22.30;49.40;;;;;;5093217;28;20449;-83
2021/10/11 08:37:22;;;;;;;4.03;3.57;;;22.30;49.30;;;;;;5090783;28;20455;-83
2021/10/11 08:39:48;;;;;;;4.20;3.73;;;22.40;49.40;;;;;;5123168;27;20418;-83
2021/10/11 08:42:15;;;;;;;3.93;3.50;;;22.30;49.40;;;;;;5145657;27;20423;-83
2021/10/11 08:44:43;;;;;;;4.47;3.67;;;22.30;49.40;;;;;;5119322;28;20495;-83
2021/10/11 08:47:10;;;;;;;4.30;3.53;;;22.30;49.40;;;;;;5090924;28;20757;-83
2021/10/11 08:49:44;;;;;;;5.00;4.07;;;22.40;49.50;;;;;;5101990;28;20466;-83
2021/10/11 08:52:11;;;;;;;4.10;3.70;;;22.30;49.40;;;;;;5090800;28;20461;-83
2021/10/11 08:54:38;;;;;;;4.80;4.27;;;22.30;49.40;;;;;;5108160;28;20823;-83
2021/10/11 08:57:05;;;;;;;4.23;3.83;;;22.30;49.40;;;;;;5073864;28;20428;-83
2021/10/11 08:59:31;;;;;;;4.23;3.83;;;22.30;49.40;;;;;;5114379;28;20437;-83
2021/10/11 09:02:09;;;;;;;4.70;4.07;;;22.30;49.40;;;;;;5146821;27;20418;-83
2021/10/11 09:04:57;;;;;;;4.20;3.80;;;22.40;49.40;;;;;;5149845;27;20470;-83
2021/10/11 09:07:25;;;;;;;6.53;4.23;;;22.30;49.40;;;;;;5149974;27;20390;-82
2021/10/11 09:09:52;;;;;;;5.30;4.13;;;22.30;49.40;;;;;;5131682;27;20454;-82
2021/10/11 09:12:23;;;;;;;9.30;6.03;;;22.30;49.40;;;;;;5148808;27;20402;-82
2021/10/11 09:15:08;;;;;;;9.27;5.50;;;22.30;49.40;;;;;;5130030;27;20493;-82
2021/10/11 09:17:40;;;;;;;8.40;5.07;;;22.30;49.40;;;;;;5130848;27;20406;-82
2021/10/11 09:20:10;;;;;;;12.30;5.37;;;22.30;49.40;;;;;;5130940;27;20473;-82
2021/10/11 09:22:37;;;;;;;12.03;7.83;;;22.30;49.30;;;;;;5121581;27;20436;-82
2021/10/11 09:25:04;;;;;;;15.93;7.20;;;22.30;49.40;;;;;;5120342;28;20430;-82
2021/10/11 09:27:41;;;;;;;14.87;7.77;;;22.30;49.30;;;;;;5110291;28;20442;-82
2021/10/11 09:30:14;;;;;;;18.13;8.53;;;22.40;49.40;;;;;;5133784;27;20468;-82
2021/10/11 09:32:39;;;;;;;19.07;8.90;;;22.40;49.40;;;;;;5089858;28;20423;-83
2021/10/11 09:35:18;;;;;;;20.97;10.00;;;22.30;49.40;;;;;;5109769;28;20447;-82
2021/10/11 09:37:50;;;;;;;15.43;9.30;;;22.30;49.30;;;;;;5108726;27;20180;-83
2021/10/11 09:40:16;;;;;;;15.57;8.67;;;22.30;49.40;;;;;;5118319;28;20426;-83
2021/10/11 09:42:42;;;;;;;15.70;9.27;;;22.40;49.40;;;;;;5125222;27;20437;-83
2021/10/11 09:45:08;;;;;;;16.70;9.43;;;22.40;49.40;;;;;;5130119;27;20418;-83
2021/10/11 09:50:03;;;;;;;23.20;10.20;;;22.40;49.40;;;;;;5128703;28;20450;-83
2021/10/11 09:52:30;;;;;;;19.50;9.17;;;22.40;49.40;;;;;;5141101;27;20420;-84
2021/10/11 09:54:56;;;;;;;20.80;10.30;;;22.40;49.40;;;;;;5120889;27;20504;-85
2021/10/11 09:57:25;;;;;;;19.13;8.77;;;22.40;49.40;;;;;;5117629;28;20419;-83
2021/10/11 09:59:53;;;;;;;19.80;9.57;;;22.40;49.50;;;;;;5110074;28;20415;-83
2021/10/11 10:02:25;;;;;;;21.03;9.60;;;22.40;49.50;;;;;;5108812;28;20761;-83
2021/10/11 10:04:58;;;;;;;18.97;8.33;;;22.40;49.50;;;;;;5091251;28;20396;-84
2021/10/11 10:07:29;;;;;;;13.80;8.73;;;22.40;49.50;;;;;;5111745;27;20842;-83
2021/10/11 10:09:56;;;;;;;16.20;8.80;;;22.40;49.50;;;;;;5106077;28;20471;-83
2021/10/11 10:12:22;;;;;;;21.03;10.37;;;22.40;49.50;;;;;;5105324;28;20426;-83
2021/10/11 10:15:02;;;;;;;14.87;8.93;;;22.40;49.50;;;;;;5109871;28;20415;-83
2021/10/11 10:17:36;;;;;;;23.03;9.93;;;22.40;49.50;;;;;;5130935;27;20427;-84
2021/10/11 10:20:09;;;;;;;17.67;9.50;;;22.40;49.50;;;;;;5143729;27;20398;-84
2021/10/11 10:22:38;;;;;;;20.83;9.40;;;22.40;49.50;;;;;;5148805;27;20435;-84
2021/10/11 10:25:12;;;;;;;24.70;9.60;;;22.40;49.50;;;;;;5129951;27;20475;-84
2021/10/11 10:27:40;;;;;;;15.30;9.73;;;22.40;49.50;;;;;;5149260;27;20404;-84
2021/10/11 10:30:20;;;;;;;23.30;9.80;;;22.40;49.50;;;;;;5130941;28;20465;-83
2021/10/11 10:33:32;;;;;;;22.30;10.10;;;22.40;49.60;;;;;;5130828;28;20404;-83
2021/10/11 10:35:57;;;;;;;24.00;9.57;;;22.40;49.50;;;;;;5046350;28;20418;-84
2021/10/11 10:38:24;;;;;;;19.27;9.57;;;22.40;49.60;;;;;;5117134;28;20444;-84
2021/10/11 10:40:49;;;;;;;19.60;9.70;;;22.40;49.60;;;;;;5130585;28;20175;-84
2021/10/11 10:43:18;;;;;;;17.03;7.97;;;22.40;49.60;;;;;;5130606;28;20418;-84
2021/10/11 10:45:45;;;;;;;20.53;10.87;;;22.40;49.60;;;;;;5130317;28;20183;-83
2021/10/11 10:48:24;;;;;;;16.43;9.10;;;22.40;49.60;;;;;;5130540;28;20418;-83
2021/10/11 10:50:58;;;;;;;17.17;9.10;;;22.40;49.60;;;;;;5130984;28;20449;-83
2021/10/11 10:53:28;;;;;;;18.17;9.00;;;22.40;49.60;;;;;;5129871;28;20405;-83
2021/10/11 10:55:57;;;;;;;13.47;7.80;;;22.40;49.60;;;;;;5131684;28;20429;-83
2021/10/11 10:58:23;;;;;;;16.43;9.30;;;22.40;49.60;;;;;;5130258;28;20410;-83
2021/10/11 11:00:49;;;;;;;13.27;7.73;;;22.40;49.70;;;;;;5130113;28;20516;-83
2021/10/11 11:03:19;;;;;;;11.77;7.57;;;22.40;49.70;;;;;;5149142;28;20437;-83
2021/10/11 11:05:48;;;;;;;15.70;8.20;;;22.40;49.70;;;;;;5148386;28;20409;-83
2021/10/11 11:08:17;;;;;;;17.00;9.27;;;22.40;49.70;;;;;;5149026;28;20431;-83
2021/10/11 11:10:44;;;;;;;19.03;9.03;;;22.40;49.70;;;;;;5130530;28;20963;-83
2021/10/11 11:13:15;;;;;;;17.43;8.40;;;22.40;49.70;;;;;;5129801;28;20421;-83
2021/10/11 11:15:46;;;;;;;17.50;8.90;;;22.40;49.70;;;;;;5147860;28;20414;-84
2021/10/11 11:18:20;;;;;;;13.40;8.27;;;22.40;49.70;;;;;;5129907;28;20406;-83
2021/10/11 11:20:47;;;;;;;14.10;7.90;;;22.40;49.70;;;;;;5130837;28;20769;-84
2021/10/11 11:23:15;;;;;;;14.43;8.60;;;22.40;49.80;;;;;;5130202;28;20416;-83
2021/10/11 11:25:46;;;;;;;17.30;8.37;;;22.40;49.80;;;;;;5130333;28;20789;-84
2021/10/11 11:28:21;;;;;;;19.77;8.17;;;22.40;49.80;;;;;;5130040;28;20421;-84
2021/10/11 11:31:10;;;;;;;16.70;8.90;;;22.40;49.80;;;;;;5129946;28;20464;-84
2021/10/11 11:33:42;;;;;;;13.00;7.93;;;22.40;49.80;;;;;;5130090;28;20421;-84
2021/10/11 11:36:10;;;;;;;16.43;8.70;;;22.40;49.80;;;;;;5131034;27;20470;-84
2021/10/11 11:38:38;;;;;;;16.40;8.63;;;22.40;49.80;;;;;;5134167;27;20416;-83
2021/10/11 11:41:05;;;;;;;11.57;7.73;;;22.40;49.80;;;;;;5135708;27;20414;-83
2021/10/11 11:43:35;;;;;;;16.63;7.80;;;22.40;49.80;;;;;;5133219;27;20413;-83
2021/10/11 11:46:02;;;;;;;19.00;9.30;;;22.40;49.90;;;;;;5133217;27;20401;-83
2021/10/11 11:48:29;;;;;;;17.33;8.10;;;22.40;49.90;;;;;;5151753;27;20410;-83
2021/10/11 11:51:05;;;;;;;15.17;7.90;;;22.40;49.90;;;;;;5151945;27;20477;-83
2021/10/11 11:53:33;;;;;;;20.73;7.70;;;22.40;49.90;;;;;;5152010;27;20482;-82
2021/10/11 11:56:01;;;;;;;13.67;8.47;;;22.40;49.90;;;;;;5152189;27;20397;-84
2021/10/11 11:58:49;;;;;;;15.07;7.73;;;22.40;49.90;;;;;;5134883;27;20402;-84
2021/10/11 12:01:24;;;;;;;13.13;7.80;;;22.40;49.90;;;;;;5134446;27;20406;-83
2021/10/11 12:03:52;;;;;;;15.83;8.10;;;22.40;50.00;;;;;;5133812;27;20903;-83
2021/10/11 12:06:18;;;;;;;15.30;8.43;;;22.40;50.00;;;;;;5136888;27;20389;-83
2021/10/11 12:08:46;;;;;;;11.47;7.00;;;22.40;50.00;;;;;;5136291;27;20469;-83
2021/10/11 12:11:17;;;;;;;13.90;7.70;;;22.40;49.90;;;;;;5136090;27;20457;-83
2021/10/11 12:13:44;;;;;;;15.43;8.07;;;22.40;50.50;;;;;;5134271;27;20438;-83
2021/10/11 12:16:17;;;;;;;12.20;7.70;;;22.40;50.00;;;;;;5151653;27;20462;-83
2021/10/11 12:18:43;;;;;;;9.50;6.40;;;22.40;50.00;;;;;;5135670;27;20489;-83
2021/10/11 12:21:49;;;;;;;12.30;6.80;;;22.40;50.00;;;;;;5137412;27;20410;-83
2021/10/11 12:24:19;;;;;;;16.20;8.27;;;22.40;50.00;;;;;;5056690;28;20402;-83
2021/10/11 12:26:54;;;;;;;11.27;6.17;;;22.40;50.00;;;;;;5053181;28;20524;-83
2021/10/11 12:29:24;;;;;;;12.53;7.20;;;22.40;50.00;;;;;;5055192;28;20468;-83
2021/10/11 12:32:09;;;;;;;11.97;6.60;;;22.40;50.00;;;;;;5025504;28;20419;-83
2021/10/11 12:34:50;;;;;;;10.67;7.30;;;22.40;50.00;;;;;;5054879;28;20419;-83
2021/10/11 12:37:17;;;;;;;9.67;6.70;;;22.40;50.00;;;;;;5041906;28;20509;-83
2021/10/11 12:42:46;;;;;;;12.00;6.70;;;22.40;50.00;;;;;;5027567;28;20486;-84
2021/10/11 12:45:13;;;;;;;13.87;7.37;;;22.40;50.00;;;;;;5028917;28;20439;-83
2021/10/11 12:47:42;;;;;;;11.67;7.13;;;22.30;50.00;;;;;;5050695;28;20517;-83
2021/10/11 12:50:10;;;;;;;11.03;6.33;;;22.40;50.10;;;;;;5041164;28;20474;-83
2021/10/11 12:52:48;;;;;;;8.47;6.07;;;22.40;50.00;;;;;;5031504;28;20435;-82
2021/10/11 12:55:31;;;;;;;17.20;7.50;;;22.40;50.00;;;;;;5030127;28;20505;-83
2021/10/11 12:58:07;;;;;;;15.50;7.93;;;22.40;50.00;;;;;;5037926;28;20474;-83
2021/10/11 13:00:37;;;;;;;10.63;5.80;;;22.40;50.10;;;;;;5054094;28;20430;-83
2021/10/11 13:03:09;;;;;;;9.93;6.67;;;22.40;50.10;;;;;;5063836;28;20436;-83